sensor_id;sensor_type;location;lat;lon;timestamp;noise_LAeq;noise_LA_min;noise_LA_max;noise_LA01;noise_LA95
72276;Laerm;61204;49.980;8.358;2023-03-09T00:01:29;52.66;46.01;61.50;;
72276;Laerm;61204;49.980;8.358;2023-03-09T00:03:55;52.90;45.71;65.64;;
72276;Laerm;61204;49.980;8.358;2023-03-09T00:06:22;54.09;46.65;64.76;;
72276;Laerm;61204;49.980;8.358;2023-03-09T00:08:48;55.22;49.52;66.66;;
72276;Laerm;61204;49.980;8.358;2023-03-09T00:11:16;54.44;48.90;66.22;;
72276;Laerm;61204;49.980;8.358;2023-03-09T00:13:44;54.38;48.97;66.21;;
72276;Laerm;61204;49.980;8.358;2023-03-09T00:16:20;53.67;48.55;70.69;;
72276;Laerm;61204;49.980;8.358;2023-03-09T00:18:46;51.85;43.81;69.14;;
72276;Laerm;61204;49.980;8.358;2023-03-09T00:21:12;53.13;45.47;63.46;;
72276;Laerm;61204;49.980;8.358;2023-03-09T00:23:50;52.50;42.01;59.13;;
72276;Laerm;61204;49.980;8.358;2023-03-09T00:26:16;45.56;41.25;56.93;;
72276;Laerm;61204;49.980;8.358;2023-03-09T00:28:41;45.60;41.33;61.51;;
72276;Laerm;61204;49.980;8.358;2023-03-09T00:31:07;47.90;42.52;60.36;;
72276;Laerm;61204;49.980;8.358;2023-03-09T00:33:32;50.34;43.18;78.20;;
72276;Laerm;61204;49.980;8.358;2023-03-09T00:35:58;51.33;45.66;69.56;;
72276;Laerm;61204;49.980;8.358;2023-03-09T00:38:24;51.35;44.21;65.82;;
72276;Laerm;61204;49.980;8.358;2023-03-09T00:40:50;51.33;44.98;70.65;;
72276;Laerm;61204;49.980;8.358;2023-03-09T00:43:17;51.21;45.74;69.46;;
72276;Laerm;61204;49.980;8.358;2023-03-09T00:45:43;51.32;44.18;69.71;;
72276;Laerm;61204;49.980;8.358;2023-03-09T00:48:08;53.61;46.36;72.65;;
72276;Laerm;61204;49.980;8.358;2023-03-09T00:50:34;55.27;48.28;72.77;;
72276;Laerm;61204;49.980;8.358;2023-03-09T00:52:59;55.73;47.82;81.20;;
72276;Laerm;61204;49.980;8.358;2023-03-09T00:55:24;53.72;48.70;71.83;;
72276;Laerm;61204;49.980;8.358;2023-03-09T00:57:50;50.99;46.07;70.35;;
72276;Laerm;61204;49.980;8.358;2023-03-09T01:00:16;51.11;45.83;69.79;;
72276;Laerm;61204;49.980;8.358;2023-03-09T01:02:41;50.63;45.75;71.18;;
72276;Laerm;61204;49.980;8.358;2023-03-09T01:05:08;52.89;46.44;69.72;;
72276;Laerm;61204;49.980;8.358;2023-03-09T01:07:35;52.51;47.13;67.18;;
72276;Laerm;61204;49.980;8.358;2023-03-09T01:10:04;51.59;46.51;56.67;;
72276;Laerm;61204;49.980;8.358;2023-03-09T01:12:30;53.09;45.99;71.21;;
72276;Laerm;61204;49.980;8.358;2023-03-09T01:14:56;52.46;47.23;70.56;;
72276;Laerm;61204;49.980;8.358;2023-03-09T01:17:23;51.53;45.30;69.09;;
72276;Laerm;61204;49.980;8.358;2023-03-09T01:19:48;54.80;48.08;76.68;;
72276;Laerm;61204;49.980;8.358;2023-03-09T01:22:14;54.61;47.36;76.99;;
72276;Laerm;61204;49.980;8.358;2023-03-09T01:24:39;55.32;47.44;80.27;;
72276;Laerm;61204;49.980;8.358;2023-03-09T01:27:07;57.04;50.41;82.81;;
72276;Laerm;61204;49.980;8.358;2023-03-09T01:29:33;54.86;47.70;78.68;;
72276;Laerm;61204;49.980;8.358;2023-03-09T01:31:59;55.25;47.78;82.47;;
72276;Laerm;61204;49.980;8.358;2023-03-09T01:34:24;52.53;46.81;75.61;;
72276;Laerm;61204;49.980;8.358;2023-03-09T01:36:50;54.45;48.55;66.28;;
72276;Laerm;61204;49.980;8.358;2023-03-09T01:39:15;53.59;48.74;63.51;;
72276;Laerm;61204;49.980;8.358;2023-03-09T01:41:43;50.31;44.46;71.34;;
72276;Laerm;61204;49.980;8.358;2023-03-09T01:44:13;53.20;46.49;67.60;;
72276;Laerm;61204;49.980;8.358;2023-03-09T01:46:53;53.26;43.90;75.21;;
72276;Laerm;61204;49.980;8.358;2023-03-09T01:49:48;51.76;42.96;72.48;;
72276;Laerm;61204;49.980;8.358;2023-03-09T01:52:22;55.22;45.37;74.71;;
72276;Laerm;61204;49.980;8.358;2023-03-09T01:54:59;52.18;44.11;73.41;;
72276;Laerm;61204;49.980;8.358;2023-03-09T01:57:30;51.15;45.48;76.41;;
72276;Laerm;61204;49.980;8.358;2023-03-09T02:00:15;51.75;45.23;73.41;;
72276;Laerm;61204;49.980;8.358;2023-03-09T02:02:49;51.73;46.00;72.13;;
72276;Laerm;61204;49.980;8.358;2023-03-09T02:05:24;54.67;46.73;83.90;;
72276;Laerm;61204;49.980;8.358;2023-03-09T02:07:51;53.81;48.33;78.69;;
72276;Laerm;61204;49.980;8.358;2023-03-09T02:10:45;52.40;46.10;71.80;;
72276;Laerm;61204;49.980;8.358;2023-03-09T02:13:19;52.19;44.05;76.65;;
72276;Laerm;61204;49.980;8.358;2023-03-09T02:15:46;53.28;48.01;70.75;;
72276;Laerm;61204;49.980;8.358;2023-03-09T02:18:12;56.29;46.40;88.96;;
72276;Laerm;61204;49.980;8.358;2023-03-09T02:23:33;54.91;48.51;78.42;;
72276;Laerm;61204;49.980;8.358;2023-03-09T02:28:53;52.84;46.56;72.25;;
72276;Laerm;61204;49.980;8.358;2023-03-09T02:31:20;51.04;45.65;60.87;;
72276;Laerm;61204;49.980;8.358;2023-03-09T02:33:46;53.27;47.85;64.47;;
72276;Laerm;61204;49.980;8.358;2023-03-09T02:36:12;52.71;45.39;65.27;;
72276;Laerm;61204;49.980;8.358;2023-03-09T02:38:37;53.19;45.61;60.00;;
72276;Laerm;61204;49.980;8.358;2023-03-09T02:41:10;50.63;44.02;61.36;;
72276;Laerm;61204;49.980;8.358;2023-03-09T02:43:48;53.36;47.46;62.48;;
72276;Laerm;61204;49.980;8.358;2023-03-09T02:46:14;52.99;47.97;61.04;;
72276;Laerm;61204;49.980;8.358;2023-03-09T02:48:40;50.81;45.15;58.23;;
72276;Laerm;61204;49.980;8.358;2023-03-09T02:51:05;53.70;47.98;61.17;;
72276;Laerm;61204;49.980;8.358;2023-03-09T02:53:32;54.35;49.07;61.41;;
72276;Laerm;61204;49.980;8.358;2023-03-09T02:55:57;52.58;47.30;59.74;;
72276;Laerm;61204;49.980;8.358;2023-03-09T02:58:23;52.21;45.43;60.30;;
72276;Laerm;61204;49.980;8.358;2023-03-09T03:00:48;52.79;45.31;69.66;;
72276;Laerm;61204;49.980;8.358;2023-03-09T03:03:14;55.97;48.91;69.85;;
72276;Laerm;61204;49.980;8.358;2023-03-09T03:05:39;52.10;45.06;65.75;;
72276;Laerm;61204;49.980;8.358;2023-03-09T03:08:05;54.75;48.05;69.55;;
72276;Laerm;61204;49.980;8.358;2023-03-09T03:10:30;57.30;48.17;73.22;;
72276;Laerm;61204;49.980;8.358;2023-03-09T03:12:56;54.67;47.82;67.23;;
72276;Laerm;61204;49.980;8.358;2023-03-09T03:15:21;54.18;47.40;64.37;;
72276;Laerm;61204;49.980;8.358;2023-03-09T03:17:47;56.23;47.65;73.45;;
72276;Laerm;61204;49.980;8.358;2023-03-09T03:20:12;56.70;49.37;73.18;;
72276;Laerm;61204;49.980;8.358;2023-03-09T03:22:41;56.91;45.31;75.26;;
72276;Laerm;61204;49.980;8.358;2023-03-09T03:25:07;57.84;46.69;74.64;;
72276;Laerm;61204;49.980;8.358;2023-03-09T03:27:33;58.39;46.28;73.89;;
72276;Laerm;61204;49.980;8.358;2023-03-09T03:29:58;56.59;47.23;71.97;;
72276;Laerm;61204;49.980;8.358;2023-03-09T03:32:24;54.77;47.44;65.61;;
72276;Laerm;61204;49.980;8.358;2023-03-09T03:34:50;56.07;49.15;70.08;;
72276;Laerm;61204;49.980;8.358;2023-03-09T03:37:16;57.90;47.82;74.76;;
72276;Laerm;61204;49.980;8.358;2023-03-09T03:39:42;53.48;47.37;65.81;;
72276;Laerm;61204;49.980;8.358;2023-03-09T03:42:07;52.67;47.24;65.53;;
72276;Laerm;61204;49.980;8.358;2023-03-09T03:44:33;54.24;47.55;68.56;;
72276;Laerm;61204;49.980;8.358;2023-03-09T03:46:58;54.41;47.86;69.70;;
72276;Laerm;61204;49.980;8.358;2023-03-09T03:49:24;52.23;44.79;63.91;;
72276;Laerm;61204;49.980;8.358;2023-03-09T03:51:52;52.18;45.30;63.88;;
72276;Laerm;61204;49.980;8.358;2023-03-09T03:54:17;56.27;48.92;71.74;;
72276;Laerm;61204;49.980;8.358;2023-03-09T03:56:43;55.08;46.61;71.17;;
72276;Laerm;61204;49.980;8.358;2023-03-09T03:59:08;55.66;48.99;73.66;;
72276;Laerm;61204;49.980;8.358;2023-03-09T04:01:34;55.51;47.26;70.39;;
72276;Laerm;61204;49.980;8.358;2023-03-09T04:03:59;53.30;48.17;67.10;;
72276;Laerm;61204;49.980;8.358;2023-03-09T04:06:25;54.21;48.92;60.64;;
72276;Laerm;61204;49.980;8.358;2023-03-09T04:08:50;55.54;49.12;65.58;;
72276;Laerm;61204;49.980;8.358;2023-03-09T04:11:16;53.92;48.74;64.05;;
72276;Laerm;61204;49.980;8.358;2023-03-09T04:13:41;54.94;49.30;69.31;;
72276;Laerm;61204;49.980;8.358;2023-03-09T04:16:07;55.37;48.95;66.33;;
72276;Laerm;61204;49.980;8.358;2023-03-09T04:18:33;55.60;49.96;65.90;;
72276;Laerm;61204;49.980;8.358;2023-03-09T04:20:59;54.64;50.38;64.57;;
72276;Laerm;61204;49.980;8.358;2023-03-09T04:23:24;56.10;50.68;67.63;;
72276;Laerm;61204;49.980;8.358;2023-03-09T04:25:55;55.30;49.27;64.30;;
72276;Laerm;61204;49.980;8.358;2023-03-09T04:28:21;55.12;50.50;68.01;;
72276;Laerm;61204;49.980;8.358;2023-03-09T04:30:46;54.48;49.94;59.90;;
72276;Laerm;61204;49.980;8.358;2023-03-09T04:33:11;55.62;51.19;61.83;;
72276;Laerm;61204;49.980;8.358;2023-03-09T04:35:39;56.41;51.89;64.79;;
72276;Laerm;61204;49.980;8.358;2023-03-09T04:38:08;56.15;52.15;63.54;;
72276;Laerm;61204;49.980;8.358;2023-03-09T04:40:34;55.94;51.53;60.86;;
72276;Laerm;61204;49.980;8.358;2023-03-09T04:43:00;56.36;52.07;65.94;;
72276;Laerm;61204;49.980;8.358;2023-03-09T04:45:26;56.30;52.04;65.87;;
72276;Laerm;61204;49.980;8.358;2023-03-09T04:47:52;56.03;52.08;64.57;;
72276;Laerm;61204;49.980;8.358;2023-03-09T04:50:17;56.68;51.07;66.61;;
72276;Laerm;61204;49.980;8.358;2023-03-09T04:52:43;58.04;52.04;68.97;;
72276;Laerm;61204;49.980;8.358;2023-03-09T04:55:08;58.16;52.73;69.45;;
72276;Laerm;61204;49.980;8.358;2023-03-09T04:57:34;58.57;53.01;71.54;;
72276;Laerm;61204;49.980;8.358;2023-03-09T04:59:59;57.67;51.71;67.79;;
72276;Laerm;61204;49.980;8.358;2023-03-09T05:02:27;57.80;50.25;74.95;;
72276;Laerm;61204;49.980;8.358;2023-03-09T05:04:54;57.22;51.31;71.49;;
72276;Laerm;61204;49.980;8.358;2023-03-09T05:07:20;58.72;51.24;77.33;;
72276;Laerm;61204;49.980;8.358;2023-03-09T05:09:45;57.22;51.93;67.77;;
72276;Laerm;61204;49.980;8.358;2023-03-09T05:12:11;58.88;52.16;69.48;;
72276;Laerm;61204;49.980;8.358;2023-03-09T05:14:37;59.61;52.66;72.37;;
72276;Laerm;61204;49.980;8.358;2023-03-09T05:17:02;60.99;53.59;74.03;;
72276;Laerm;61204;49.980;8.358;2023-03-09T05:19:28;61.19;54.23;73.28;;
72276;Laerm;61204;49.980;8.358;2023-03-09T05:21:53;59.42;54.71;71.23;;
72276;Laerm;61204;49.980;8.358;2023-03-09T05:24:18;59.31;54.97;66.35;;
72276;Laerm;61204;49.980;8.358;2023-03-09T05:26:44;58.89;54.11;66.91;;
72276;Laerm;61204;49.980;8.358;2023-03-09T05:29:09;59.79;55.20;69.15;;
72276;Laerm;61204;49.980;8.358;2023-03-09T05:31:35;58.96;54.87;63.80;;
72276;Laerm;61204;49.980;8.358;2023-03-09T05:34:00;59.13;54.67;64.00;;
72276;Laerm;61204;49.980;8.358;2023-03-09T05:36:26;59.23;55.25;67.90;;
72276;Laerm;61204;49.980;8.358;2023-03-09T05:38:54;60.44;54.78;76.14;;
72276;Laerm;61204;49.980;8.358;2023-03-09T05:41:20;58.88;54.46;70.24;;
72276;Laerm;61204;49.980;8.358;2023-03-09T05:43:45;58.89;54.25;71.30;;
72276;Laerm;61204;49.980;8.358;2023-03-09T05:46:14;58.19;54.03;73.23;;
72276;Laerm;61204;49.980;8.358;2023-03-09T05:48:41;60.75;54.02;77.20;;
72276;Laerm;61204;49.980;8.358;2023-03-09T05:51:07;59.11;54.28;70.16;;
72276;Laerm;61204;49.980;8.358;2023-03-09T05:53:35;59.59;54.28;68.62;;
72276;Laerm;61204;49.980;8.358;2023-03-09T05:56:01;58.77;54.86;65.03;;
72276;Laerm;61204;49.980;8.358;2023-03-09T05:58:27;58.74;54.34;69.20;;
72276;Laerm;61204;49.980;8.358;2023-03-09T06:00:53;59.55;54.43;67.90;;
72276;Laerm;61204;49.980;8.358;2023-03-09T06:03:20;58.14;53.85;67.48;;
72276;Laerm;61204;49.980;8.358;2023-03-09T06:05:46;59.33;55.47;65.60;;
72276;Laerm;61204;49.980;8.358;2023-03-09T06:08:12;59.81;55.47;69.02;;
72276;Laerm;61204;49.980;8.358;2023-03-09T06:10:38;59.69;55.42;66.80;;
72276;Laerm;61204;49.980;8.358;2023-03-09T06:13:04;58.71;53.25;71.95;;
72276;Laerm;61204;49.980;8.358;2023-03-09T06:15:32;59.37;55.61;63.57;;
72276;Laerm;61204;49.980;8.358;2023-03-09T06:17:59;58.60;54.04;64.63;;
72276;Laerm;61204;49.980;8.358;2023-03-09T06:20:24;60.06;55.03;67.53;;
72276;Laerm;61204;49.980;8.358;2023-03-09T06:22:49;59.54;55.14;66.07;;
72276;Laerm;61204;49.980;8.358;2023-03-09T06:25:15;59.87;56.01;68.64;;
72276;Laerm;61204;49.980;8.358;2023-03-09T06:27:40;58.28;54.53;63.34;;
72276;Laerm;61204;49.980;8.358;2023-03-09T06:30:11;59.57;55.42;64.64;;
72276;Laerm;61204;49.980;8.358;2023-03-09T06:32:37;59.28;55.50;63.63;;
72276;Laerm;61204;49.980;8.358;2023-03-09T06:35:03;59.88;55.69;66.16;;
72276;Laerm;61204;49.980;8.358;2023-03-09T06:37:28;60.17;55.10;66.43;;
72276;Laerm;61204;49.980;8.358;2023-03-09T06:39:54;60.16;54.89;66.67;;
72276;Laerm;61204;49.980;8.358;2023-03-09T06:42:19;60.22;54.19;66.64;;
72276;Laerm;61204;49.980;8.358;2023-03-09T06:44:45;59.41;55.77;68.17;;
72276;Laerm;61204;49.980;8.358;2023-03-09T06:47:11;60.99;57.23;65.57;;
72276;Laerm;61204;49.980;8.358;2023-03-09T06:49:37;60.36;55.33;66.05;;
72276;Laerm;61204;49.980;8.358;2023-03-09T06:52:05;60.27;56.57;66.11;;
72276;Laerm;61204;49.980;8.358;2023-03-09T06:54:31;60.28;56.83;64.83;;
72276;Laerm;61204;49.980;8.358;2023-03-09T06:56:56;60.54;56.50;69.21;;
72276;Laerm;61204;49.980;8.358;2023-03-09T06:59:22;61.24;56.80;77.12;;
72276;Laerm;61204;49.980;8.358;2023-03-09T07:01:47;60.44;56.21;69.80;;
72276;Laerm;61204;49.980;8.358;2023-03-09T07:04:13;60.41;56.30;74.57;;
72276;Laerm;61204;49.980;8.358;2023-03-09T07:06:38;59.63;56.02;66.89;;
72276;Laerm;61204;49.980;8.358;2023-03-09T07:09:04;59.66;56.28;64.87;;
72276;Laerm;61204;49.980;8.358;2023-03-09T07:11:30;59.31;54.94;65.10;;
72276;Laerm;61204;49.980;8.358;2023-03-09T07:13:55;59.69;55.88;68.11;;
72276;Laerm;61204;49.980;8.358;2023-03-09T07:16:21;60.18;56.11;64.97;;
72276;Laerm;61204;49.980;8.358;2023-03-09T07:18:48;59.67;55.37;64.24;;
72276;Laerm;61204;49.980;8.358;2023-03-09T07:21:14;58.94;54.96;66.97;;
72276;Laerm;61204;49.980;8.358;2023-03-09T07:23:39;59.16;54.55;69.92;;
72276;Laerm;61204;49.980;8.358;2023-03-09T07:26:05;59.00;55.05;68.11;;
72276;Laerm;61204;49.980;8.358;2023-03-09T07:28:31;59.50;55.35;65.26;;
72276;Laerm;61204;49.980;8.358;2023-03-09T07:30:57;59.98;54.72;66.64;;
72276;Laerm;61204;49.980;8.358;2023-03-09T07:33:22;59.37;55.29;64.39;;
72276;Laerm;61204;49.980;8.358;2023-03-09T07:35:48;60.29;56.25;68.67;;
72276;Laerm;61204;49.980;8.358;2023-03-09T07:38:13;60.34;56.33;66.58;;
72276;Laerm;61204;49.980;8.358;2023-03-09T07:40:39;60.01;55.26;65.82;;
72276;Laerm;61204;49.980;8.358;2023-03-09T07:43:05;60.16;55.75;67.43;;
72276;Laerm;61204;49.980;8.358;2023-03-09T07:45:30;60.05;55.52;71.11;;
72276;Laerm;61204;49.980;8.358;2023-03-09T07:47:56;60.13;54.75;75.17;;
72276;Laerm;61204;49.980;8.358;2023-03-09T07:50:21;60.43;55.85;69.94;;
72276;Laerm;61204;49.980;8.358;2023-03-09T07:52:47;60.17;55.68;68.52;;
72276;Laerm;61204;49.980;8.358;2023-03-09T07:55:13;60.02;55.08;67.50;;
72276;Laerm;61204;49.980;8.358;2023-03-09T07:57:40;60.16;55.63;69.21;;
72276;Laerm;61204;49.980;8.358;2023-03-09T08:00:13;60.18;54.52;72.32;;
72276;Laerm;61204;49.980;8.358;2023-03-09T08:02:40;60.86;55.40;76.07;;
72276;Laerm;61204;49.980;8.358;2023-03-09T08:05:08;60.66;55.48;72.12;;
72276;Laerm;61204;49.980;8.358;2023-03-09T08:07:34;60.13;54.98;70.56;;
72276;Laerm;61204;49.980;8.358;2023-03-09T08:10:01;59.80;54.53;76.09;;
72276;Laerm;61204;49.980;8.358;2023-03-09T08:12:26;59.69;54.89;71.93;;
72276;Laerm;61204;49.980;8.358;2023-03-09T08:14:52;59.62;54.49;70.01;;
72276;Laerm;61204;49.980;8.358;2023-03-09T08:17:17;59.64;55.51;65.27;;
72276;Laerm;61204;49.980;8.358;2023-03-09T08:19:44;58.90;54.64;68.10;;
72276;Laerm;61204;49.980;8.358;2023-03-09T08:22:10;61.05;55.30;72.43;;
72276;Laerm;61204;49.980;8.358;2023-03-09T08:24:35;60.11;54.09;72.96;;
72276;Laerm;61204;49.980;8.358;2023-03-09T08:27:01;59.75;55.63;68.75;;
72276;Laerm;61204;49.980;8.358;2023-03-09T08:29:26;60.25;54.83;72.24;;
72276;Laerm;61204;49.980;8.358;2023-03-09T08:31:52;59.70;53.92;68.05;;
72276;Laerm;61204;49.980;8.358;2023-03-09T08:34:19;62.65;54.97;81.26;;
72276;Laerm;61204;49.980;8.358;2023-03-09T08:36:47;61.45;54.92;74.82;;
72276;Laerm;61204;49.980;8.358;2023-03-09T08:39:13;61.76;54.27;77.63;;
72276;Laerm;61204;49.980;8.358;2023-03-09T08:41:38;62.34;54.30;77.81;;
72276;Laerm;61204;49.980;8.358;2023-03-09T08:44:04;63.04;53.21;84.59;;
72276;Laerm;61204;49.980;8.358;2023-03-09T08:46:29;63.34;54.70;81.27;;
72276;Laerm;61204;49.980;8.358;2023-03-09T08:48:55;59.89;54.68;73.55;;
72276;Laerm;61204;49.980;8.358;2023-03-09T08:51:22;61.76;53.57;78.58;;
72276;Laerm;61204;49.980;8.358;2023-03-09T08:53:48;62.87;54.26;78.12;;
72276;Laerm;61204;49.980;8.358;2023-03-09T08:56:14;62.74;55.09;78.68;;
72276;Laerm;61204;49.980;8.358;2023-03-09T08:58:40;62.26;53.98;78.67;;
72276;Laerm;61204;49.980;8.358;2023-03-09T09:01:08;58.89;52.34;74.78;;
72276;Laerm;61204;49.980;8.358;2023-03-09T09:03:34;63.37;53.56;80.62;;
72276;Laerm;61204;49.980;8.358;2023-03-09T09:06:06;65.51;54.40;85.15;;
72276;Laerm;61204;49.980;8.358;2023-03-09T09:08:33;62.11;52.60;76.52;;
72276;Laerm;61204;49.980;8.358;2023-03-09T09:10:59;63.23;53.48;79.98;;
72276;Laerm;61204;49.980;8.358;2023-03-09T09:13:25;61.17;54.17;76.23;;
72276;Laerm;61204;49.980;8.358;2023-03-09T09:15:54;62.07;52.86;81.58;;
72276;Laerm;61204;49.980;8.358;2023-03-09T09:18:22;61.05;53.49;78.39;;
72276;Laerm;61204;49.980;8.358;2023-03-09T09:20:48;59.22;53.41;69.73;;
72276;Laerm;61204;49.980;8.358;2023-03-09T09:23:14;60.80;53.00;75.78;;
72276;Laerm;61204;49.980;8.358;2023-03-09T09:25:40;61.52;52.97;78.37;;
72276;Laerm;61204;49.980;8.358;2023-03-09T09:28:08;59.69;52.84;74.46;;
72276;Laerm;61204;49.980;8.358;2023-03-09T09:30:33;61.81;54.77;77.93;;
72276;Laerm;61204;49.980;8.358;2023-03-09T09:33:00;61.70;53.29;79.19;;
72276;Laerm;61204;49.980;8.358;2023-03-09T09:35:28;63.68;54.03;82.97;;
72276;Laerm;61204;49.980;8.358;2023-03-09T09:37:55;64.20;53.41;82.72;;
72276;Laerm;61204;49.980;8.358;2023-03-09T09:40:23;61.59;54.34;74.92;;
72276;Laerm;61204;49.980;8.358;2023-03-09T09:42:50;61.84;52.46;79.65;;
72276;Laerm;61204;49.980;8.358;2023-03-09T09:45:36;64.69;53.81;85.09;;
72276;Laerm;61204;49.980;8.358;2023-03-09T09:48:06;61.95;53.35;81.59;;
72276;Laerm;61204;49.980;8.358;2023-03-09T09:56:00;62.16;53.09;82.82;;
72276;Laerm;61204;49.980;8.358;2023-03-09T09:58:34;64.98;55.12;85.15;;
72276;Laerm;61204;49.980;8.358;2023-03-09T10:03:49;63.71;53.04;82.91;;
72276;Laerm;61204;49.980;8.358;2023-03-09T10:06:24;65.51;53.44;81.59;;
72276;Laerm;61204;49.980;8.358;2023-03-09T10:09:21;62.34;52.50;85.16;;
72276;Laerm;61204;49.980;8.358;2023-03-09T10:11:59;64.45;53.10;82.02;;
72276;Laerm;61204;49.980;8.358;2023-03-09T10:14:34;66.65;53.66;82.97;;
72276;Laerm;61204;49.980;8.358;2023-03-09T10:17:12;70.81;54.64;93.22;;
72276;Laerm;61204;49.980;8.358;2023-03-09T10:19:41;62.05;53.34;80.16;;
72276;Laerm;61204;49.980;8.358;2023-03-09T10:24:47;61.68;52.61;82.54;;
72276;Laerm;61204;49.980;8.358;2023-03-09T10:27:47;65.61;52.80;83.74;;
72276;Laerm;61204;49.980;8.358;2023-03-09T10:30:32;68.68;53.31;90.89;;
72276;Laerm;61204;49.980;8.358;2023-03-09T10:36:29;64.07;53.53;84.19;;
72276;Laerm;61204;49.980;8.358;2023-03-09T10:39:02;69.03;54.97;91.68;;
72276;Laerm;61204;49.980;8.358;2023-03-09T10:41:28;67.04;54.00;83.57;;
72276;Laerm;61204;49.980;8.358;2023-03-09T10:43:56;66.20;53.24;86.96;;
72276;Laerm;61204;49.980;8.358;2023-03-09T10:46:25;68.78;53.87;88.93;;
72276;Laerm;61204;49.980;8.358;2023-03-09T10:49:09;66.79;53.31;87.55;;
72276;Laerm;61204;49.980;8.358;2023-03-09T10:51:41;62.86;53.62;82.11;;
72276;Laerm;61204;49.980;8.358;2023-03-09T10:54:25;65.61;54.93;85.78;;
72276;Laerm;61204;49.980;8.358;2023-03-09T10:56:53;67.85;53.50;93.96;;
72276;Laerm;61204;49.980;8.358;2023-03-09T10:59:23;66.26;53.55;85.77;;
72276;Laerm;61204;49.980;8.358;2023-03-09T11:01:52;64.47;53.82;80.32;;
72276;Laerm;61204;49.980;8.358;2023-03-09T11:06:53;59.56;53.93;75.68;;
72276;Laerm;61204;49.980;8.358;2023-03-09T11:09:27;60.04;53.66;79.23;;
72276;Laerm;61204;49.980;8.358;2023-03-09T11:12:16;66.86;54.42;84.87;;
72276;Laerm;61204;49.980;8.358;2023-03-09T11:14:48;64.84;54.41;82.01;;
72276;Laerm;61204;49.980;8.358;2023-03-09T11:17:41;65.39;53.65;89.10;;
72276;Laerm;61204;49.980;8.358;2023-03-09T11:20:38;61.25;52.60;77.54;;
72276;Laerm;61204;49.980;8.358;2023-03-09T11:26:34;65.93;54.26;85.79;;
72276;Laerm;61204;49.980;8.358;2023-03-09T11:29:22;62.65;54.05;82.54;;
72276;Laerm;61204;49.980;8.358;2023-03-09T11:31:49;62.32;54.18;80.03;;
72276;Laerm;61204;49.980;8.358;2023-03-09T11:34:25;63.06;52.82;82.68;;
72276;Laerm;61204;49.980;8.358;2023-03-09T11:36:59;61.40;54.87;79.11;;
72276;Laerm;61204;49.980;8.358;2023-03-09T11:42:05;66.11;54.38;85.73;;
72276;Laerm;61204;49.980;8.358;2023-03-09T11:44:40;66.52;53.87;85.36;;
72276;Laerm;61204;49.980;8.358;2023-03-09T11:47:28;65.44;53.80;87.02;;
72276;Laerm;61204;49.980;8.358;2023-03-09T11:50:00;67.25;53.55;91.59;;
72276;Laerm;61204;49.980;8.358;2023-03-09T11:52:35;70.54;54.96;88.23;;
72276;Laerm;61204;49.980;8.358;2023-03-09T11:55:12;64.08;53.73;81.44;;
72276;Laerm;61204;49.980;8.358;2023-03-09T11:57:43;65.26;53.32;85.60;;
72276;Laerm;61204;49.980;8.358;2023-03-09T12:00:15;63.98;54.14;80.40;;
72276;Laerm;61204;49.980;8.358;2023-03-09T12:03:15;64.07;53.43;83.65;;
72276;Laerm;61204;49.980;8.358;2023-03-09T12:08:38;68.52;54.60;85.53;;
72276;Laerm;61204;49.980;8.358;2023-03-09T12:11:17;65.30;54.60;87.94;;
72276;Laerm;61204;49.980;8.358;2023-03-09T12:16:49;68.76;53.04;89.84;;
72276;Laerm;61204;49.980;8.358;2023-03-09T12:19:19;62.23;54.38;77.32;;
72276;Laerm;61204;49.980;8.358;2023-03-09T12:22:25;63.14;53.76;82.72;;
72276;Laerm;61204;49.980;8.358;2023-03-09T12:25:04;62.59;54.67;79.89;;
72276;Laerm;61204;49.980;8.358;2023-03-09T12:27:34;64.40;54.40;83.29;;
72276;Laerm;61204;49.980;8.358;2023-03-09T12:35:04;65.13;53.02;83.84;;
72276;Laerm;61204;49.980;8.358;2023-03-09T12:45:50;62.18;55.40;80.88;;
72276;Laerm;61204;49.980;8.358;2023-03-09T12:48:23;68.05;53.58;87.41;;
72276;Laerm;61204;49.980;8.358;2023-03-09T12:51:06;65.99;54.60;85.23;;
72276;Laerm;61204;49.980;8.358;2023-03-09T12:53:58;67.96;54.95;86.38;;
72276;Laerm;61204;49.980;8.358;2023-03-09T12:56:26;68.06;54.46;91.75;;
72276;Laerm;61204;49.980;8.358;2023-03-09T12:58:53;63.31;55.10;80.64;;
72276;Laerm;61204;49.980;8.358;2023-03-09T13:06:56;66.88;53.45;85.33;;
72276;Laerm;61204;49.980;8.358;2023-03-09T13:09:35;70.29;54.12;87.19;;
72276;Laerm;61204;49.980;8.358;2023-03-09T13:12:30;64.70;54.07;84.85;;
72276;Laerm;61204;49.980;8.358;2023-03-09T13:17:42;67.42;54.10;86.94;;
72276;Laerm;61204;49.980;8.358;2023-03-09T13:20:17;68.53;55.10;90.09;;
72276;Laerm;61204;49.980;8.358;2023-03-09T13:22:50;65.04;54.33;84.53;;
72276;Laerm;61204;49.980;8.358;2023-03-09T13:25:30;68.09;53.82;91.49;;
72276;Laerm;61204;49.980;8.358;2023-03-09T13:28:29;68.21;53.24;89.52;;
72276;Laerm;61204;49.980;8.358;2023-03-09T13:31:02;70.33;54.99;90.95;;
72276;Laerm;61204;49.980;8.358;2023-03-09T13:33:35;63.48;53.60;85.38;;
72276;Laerm;61204;49.980;8.358;2023-03-09T13:36:21;64.21;54.07;83.13;;
72276;Laerm;61204;49.980;8.358;2023-03-09T13:38:55;63.85;54.50;82.60;;
72276;Laerm;61204;49.980;8.358;2023-03-09T13:41:26;60.48;53.50;82.45;;
72276;Laerm;61204;49.980;8.358;2023-03-09T13:43:54;66.81;54.01;88.14;;
72276;Laerm;61204;49.980;8.358;2023-03-09T13:46:27;66.08;54.30;84.80;;
72276;Laerm;61204;49.980;8.358;2023-03-09T13:48:58;60.42;51.98;76.02;;
72276;Laerm;61204;49.980;8.358;2023-03-09T13:52:12;58.95;54.16;73.01;;
72276;Laerm;61204;49.980;8.358;2023-03-09T13:54:57;60.99;53.12;78.97;;
72276;Laerm;61204;49.980;8.358;2023-03-09T13:57:34;66.07;54.54;86.53;;
72276;Laerm;61204;49.980;8.358;2023-03-09T14:00:23;71.90;55.12;90.71;;
72276;Laerm;61204;49.980;8.358;2023-03-09T14:02:52;65.87;53.63;86.05;;
72276;Laerm;61204;49.980;8.358;2023-03-09T14:05:22;62.12;53.29;80.43;;
72276;Laerm;61204;49.980;8.358;2023-03-09T14:07:55;65.29;55.73;84.37;;
72276;Laerm;61204;49.980;8.358;2023-03-09T14:10:25;64.30;53.81;83.02;;
72276;Laerm;61204;49.980;8.358;2023-03-09T14:12:59;60.98;53.70;78.06;;
72276;Laerm;61204;49.980;8.358;2023-03-09T14:15:26;62.10;50.99;80.01;;
72276;Laerm;61204;49.980;8.358;2023-03-09T14:17:54;59.01;52.39;75.10;;
72276;Laerm;61204;49.980;8.358;2023-03-09T14:20:30;59.16;51.78;76.89;;
72276;Laerm;61204;49.980;8.358;2023-03-09T14:22:57;61.67;53.46;84.55;;
72276;Laerm;61204;49.980;8.358;2023-03-09T14:27:53;59.56;52.84;77.66;;
72276;Laerm;61204;49.980;8.358;2023-03-09T14:33:23;58.09;52.89;68.91;;
72276;Laerm;61204;49.980;8.358;2023-03-09T14:35:50;60.60;54.25;79.41;;
72276;Laerm;61204;49.980;8.358;2023-03-09T14:38:23;62.15;53.79;80.33;;
72276;Laerm;61204;49.980;8.358;2023-03-09T14:41:03;59.90;54.19;76.32;;
72276;Laerm;61204;49.980;8.358;2023-03-09T14:43:38;59.56;54.07;74.31;;
72276;Laerm;61204;49.980;8.358;2023-03-09T14:48:34;61.79;53.90;81.09;;
72276;Laerm;61204;49.980;8.358;2023-03-09T14:51:00;63.58;54.16;84.53;;
72276;Laerm;61204;49.980;8.358;2023-03-09T14:53:26;61.39;53.52;84.47;;
72276;Laerm;61204;49.980;8.358;2023-03-09T14:55:52;60.50;51.77;75.30;;
72276;Laerm;61204;49.980;8.358;2023-03-09T14:58:17;61.20;52.55;79.20;;
72276;Laerm;61204;49.980;8.358;2023-03-09T15:00:43;63.08;51.07;83.28;;